createdAt,value
2023-01-19T00:02:06.381Z,-0.60
2023-01-19T00:04:34.964Z,-0.60
2023-01-19T00:07:05.436Z,-0.60
2023-01-19T00:09:38.474Z,-0.60
2023-01-19T00:12:07.589Z,-0.60
2023-01-19T00:14:41.696Z,-0.60
2023-01-19T00:17:10.380Z,-0.50
2023-01-19T00:19:38.690Z,-0.40
2023-01-19T00:22:08.821Z,-0.50
2023-01-19T00:24:37.518Z,-0.50
2023-01-19T00:27:05.777Z,-0.50
2023-01-19T00:29:34.451Z,-0.40
2023-01-19T00:32:07.307Z,-0.40
2023-01-19T00:34:42.773Z,-0.40
2023-01-19T00:37:11.678Z,-0.40
2023-01-19T00:39:40.277Z,-0.40
2023-01-19T00:42:29.525Z,-0.40
2023-01-19T00:44:58.598Z,-0.40
2023-01-19T00:47:28.528Z,-0.40
2023-01-19T00:49:57.148Z,-0.40
2023-01-19T00:52:30.473Z,-0.50
2023-01-19T00:54:59.334Z,-0.50
2023-01-19T00:57:29.582Z,-0.60
2023-01-19T00:59:58.843Z,-0.60
2023-01-19T01:02:29.289Z,-0.60
2023-01-19T01:04:58.085Z,-0.50
2023-01-19T01:07:27.655Z,-0.50
2023-01-19T01:09:56.694Z,-0.50
2023-01-19T01:12:25.461Z,-0.50
2023-01-19T01:14:53.717Z,-0.50
2023-01-19T01:17:25.088Z,-0.40
2023-01-19T01:19:55.537Z,-0.40
2023-01-19T01:22:24.755Z,-0.30
2023-01-19T01:24:54.758Z,-0.20
2023-01-19T01:27:23.786Z,-0.20
2023-01-19T01:29:52.907Z,-0.10
2023-01-19T01:32:23.540Z,-0.10
2023-01-19T01:34:52.438Z,-0.10
2023-01-19T01:37:22.741Z,0.00
2023-01-19T01:39:51.312Z,0.00
2023-01-19T01:42:21.627Z,0.00
2023-01-19T01:44:53.167Z,0.00
2023-01-19T01:47:29.860Z,0.00
2023-01-19T01:50:05.015Z,0.10
2023-01-19T01:52:38.939Z,0.10
2023-01-19T01:55:09.122Z,0.10
2023-01-19T01:57:41.576Z,0.10
2023-01-19T02:00:12.620Z,0.10
2023-01-19T02:02:52.540Z,0.10
2023-01-19T02:05:25.350Z,0.10
2023-01-19T02:08:19.858Z,0.10
2023-01-19T02:11:06.183Z,0.20
2023-01-19T02:13:38.997Z,0.20
2023-01-19T02:16:09.837Z,0.20
2023-01-19T02:18:38.750Z,0.20
2023-01-19T02:21:12.328Z,0.20
2023-01-19T02:23:48.520Z,0.20
2023-01-19T02:26:20.344Z,0.20
2023-01-19T02:28:52.939Z,0.20
2023-01-19T02:31:21.468Z,0.20
2023-01-19T02:33:50.935Z,0.20
2023-01-19T02:36:27.467Z,0.30
2023-01-19T02:39:00.197Z,0.30
2023-01-19T02:41:34.042Z,0.30
2023-01-19T02:44:03.484Z,0.30
2023-01-19T02:46:33.188Z,0.30
2023-01-19T02:49:02.180Z,0.30
2023-01-19T02:51:31.108Z,0.40
2023-01-19T02:54:13.709Z,0.40
2023-01-19T02:56:54.627Z,0.40
2023-01-19T02:59:37.151Z,0.40
2023-01-19T03:02:20.690Z,0.40
2023-01-19T03:05:00.556Z,0.40
2023-01-19T03:07:39.420Z,0.40
2023-01-19T03:10:18.301Z,0.40
2023-01-19T03:12:51.801Z,0.50
2023-01-19T03:15:25.205Z,0.50
2023-01-19T03:17:54.987Z,0.50
2023-01-19T03:20:29.054Z,0.50
2023-01-19T03:23:03.700Z,0.50
2023-01-19T03:25:40.901Z,0.50
2023-01-19T03:28:14.503Z,0.50
2023-01-19T03:30:47.756Z,0.50
2023-01-19T03:33:23.620Z,0.50
2023-01-19T03:35:57.456Z,0.50
2023-01-19T03:38:28.721Z,0.60
2023-01-19T03:41:03.600Z,0.60
2023-01-19T03:43:35.581Z,0.60
2023-01-19T03:46:06.266Z,0.60
2023-01-19T03:48:35.323Z,0.60
2023-01-19T03:51:05.931Z,0.60
2023-01-19T03:53:35.267Z,0.60
2023-01-19T03:56:10.482Z,0.60
2023-01-19T03:58:39.451Z,0.60
2023-01-19T04:01:08.478Z,0.60
2023-01-19T04:03:37.042Z,0.60
2023-01-19T04:06:06.651Z,0.70
2023-01-19T04:08:35.026Z,0.70
2023-01-19T04:11:06.540Z,0.60
2023-01-19T04:13:34.974Z,0.70
2023-01-19T04:16:04.790Z,0.60
2023-01-19T04:18:36.826Z,0.60
2023-01-19T04:21:08.997Z,0.60
2023-01-19T04:23:37.432Z,0.60
2023-01-19T04:26:09.856Z,0.60
2023-01-19T04:28:38.545Z,0.60
2023-01-19T04:31:07.827Z,0.60
2023-01-19T04:33:36.529Z,0.60
2023-01-19T04:36:05.452Z,0.60
2023-01-19T04:38:34.104Z,0.60
2023-01-19T04:41:02.713Z,0.60
2023-01-19T04:43:32.592Z,0.60
2023-01-19T04:46:03.029Z,0.70
2023-01-19T04:48:32.152Z,0.70
2023-01-19T04:51:08.724Z,0.70
2023-01-19T04:53:36.966Z,0.70
2023-01-19T04:56:05.711Z,0.70
2023-01-19T04:58:35.486Z,0.70
2023-01-19T05:01:08.191Z,0.70
2023-01-19T05:04:01.629Z,0.70
2023-01-19T05:06:31.368Z,0.70
2023-01-19T05:08:59.860Z,0.70
2023-01-19T05:11:28.922Z,0.70
2023-01-19T05:13:59.265Z,0.70
2023-01-19T05:16:27.673Z,0.70
2023-01-19T05:18:56.922Z,0.70
2023-01-19T05:21:25.056Z,0.70
2023-01-19T05:23:55.743Z,0.70
2023-01-19T05:26:24.108Z,0.80
2023-01-19T05:28:52.698Z,0.80
2023-01-19T05:31:23.427Z,0.80
2023-01-19T05:33:52.222Z,0.80
2023-01-19T05:36:21.031Z,0.70
2023-01-19T05:38:50.982Z,0.80
2023-01-19T05:41:19.592Z,0.80
2023-01-19T05:43:48.108Z,0.70
2023-01-19T05:46:16.913Z,0.80
2023-01-19T05:48:48.414Z,0.70
2023-01-19T05:51:17.117Z,0.70
2023-01-19T05:53:49.926Z,0.70
2023-01-19T05:56:19.408Z,0.70
2023-01-19T05:58:47.703Z,0.70
2023-01-19T06:01:17.353Z,0.70
2023-01-19T06:03:48.894Z,0.70
2023-01-19T06:06:19.045Z,0.70
2023-01-19T06:08:50.207Z,0.80
2023-01-19T06:11:24.468Z,0.80
2023-01-19T06:13:54.097Z,0.80
2023-01-19T06:16:22.901Z,0.80
2023-01-19T06:18:52.830Z,0.80
2023-01-19T06:21:23.793Z,0.80
2023-01-19T06:23:52.711Z,0.80
2023-01-19T06:26:21.529Z,0.80
2023-01-19T06:28:52.479Z,0.80
2023-01-19T06:31:21.058Z,0.80
2023-01-19T06:33:56.413Z,0.70
2023-01-19T06:36:25.127Z,0.70
2023-01-19T06:38:53.872Z,0.70
2023-01-19T06:41:22.267Z,0.70
2023-01-19T06:43:50.942Z,0.70
2023-01-19T06:46:19.407Z,0.70
2023-01-19T06:48:48.102Z,0.70
2023-01-19T06:51:18.448Z,0.70
2023-01-19T06:53:47.042Z,0.60
2023-01-19T06:56:17.428Z,0.60
2023-01-19T06:58:48.064Z,0.60
2023-01-19T07:01:16.940Z,0.50
2023-01-19T07:03:46.979Z,0.50
2023-01-19T07:06:16.579Z,0.50
2023-01-19T07:08:46.446Z,0.50
2023-01-19T07:11:23.208Z,0.50
2023-01-19T07:13:58.813Z,0.50
2023-01-19T07:16:27.740Z,0.50
2023-01-19T07:18:56.115Z,0.60
2023-01-19T07:21:25.109Z,0.60
2023-01-19T07:23:55.395Z,0.60
2023-01-19T07:26:25.602Z,0.60
2023-01-19T07:28:54.094Z,0.60
2023-01-19T07:31:23.102Z,0.60
2023-01-19T07:33:53.721Z,0.60
2023-01-19T07:36:23.034Z,0.60
2023-01-19T07:38:51.244Z,0.60
2023-01-19T07:41:22.455Z,0.60
2023-01-19T07:43:52.839Z,0.50
2023-01-19T07:46:22.695Z,0.50
2023-01-19T07:48:53.822Z,0.50
2023-01-19T07:51:23.727Z,0.50
2023-01-19T07:53:53.602Z,0.50
2023-01-19T07:56:24.586Z,0.50
2023-01-19T07:58:53.188Z,0.50
2023-01-19T08:01:22.095Z,0.50
2023-01-19T08:03:50.859Z,0.50
2023-01-19T08:06:25.304Z,0.50
2023-01-19T08:08:55.497Z,0.50
2023-01-19T08:11:25.587Z,0.50
2023-01-19T08:13:54.092Z,0.50
2023-01-19T08:16:26.011Z,0.50
2023-01-19T08:18:56.478Z,0.50
2023-01-19T08:21:25.081Z,0.60
2023-01-19T08:23:55.468Z,0.50
2023-01-19T08:26:29.896Z,0.60
2023-01-19T08:29:01.660Z,0.60
2023-01-19T08:31:30.669Z,0.60
2023-01-19T08:33:59.643Z,0.60
2023-01-19T08:36:29.576Z,0.70
2023-01-19T08:39:01.565Z,0.70
2023-01-19T08:41:32.701Z,0.80
2023-01-19T08:44:01.388Z,0.80
2023-01-19T08:46:31.282Z,0.90
2023-01-19T08:48:59.850Z,1.00
2023-01-19T08:51:30.799Z,1.10
2023-01-19T08:53:59.447Z,1.10
2023-01-19T08:56:28.095Z,1.20
2023-01-19T08:59:08.659Z,1.20
2023-01-19T09:01:39.292Z,1.30
2023-01-19T09:04:08.047Z,1.30
2023-01-19T09:06:36.708Z,1.20
2023-01-19T09:09:06.646Z,1.20
2023-01-19T09:11:35.680Z,1.20
2023-01-19T09:14:06.998Z,1.30
2023-01-19T09:16:35.613Z,1.30
2023-01-19T09:19:04.241Z,1.30
2023-01-19T09:21:32.625Z,1.30
2023-01-19T09:24:01.191Z,1.30
2023-01-19T09:26:33.086Z,1.30
2023-01-19T09:29:03.283Z,1.40
2023-01-19T09:31:33.513Z,1.40
2023-01-19T09:34:01.964Z,1.40
2023-01-19T09:36:30.425Z,1.50
2023-01-19T09:38:59.780Z,1.40
2023-01-19T09:41:28.681Z,1.50
2023-01-19T09:44:01.871Z,1.50
2023-01-19T09:46:38.817Z,1.50
2023-01-19T09:49:14.785Z,1.60
2023-01-19T09:51:48.349Z,1.60
2023-01-19T09:54:19.574Z,1.70
2023-01-19T09:56:52.617Z,1.70
2023-01-19T09:59:25.140Z,1.70
2023-01-19T10:02:23.402Z,1.80
2023-01-19T10:05:00.584Z,1.80
2023-01-19T10:07:42.256Z,1.80
2023-01-19T10:10:21.484Z,1.80
2023-01-19T10:13:12.647Z,2.00
2023-01-19T10:15:54.345Z,2.30
2023-01-19T10:18:33.480Z,2.40
2023-01-19T10:21:07.773Z,2.50
2023-01-19T10:23:42.703Z,2.50
2023-01-19T10:26:17.480Z,2.60
2023-01-19T10:28:50.347Z,2.70
2023-01-19T10:31:20.466Z,2.70
2023-01-19T10:33:52.683Z,2.70
2023-01-19T10:36:25.790Z,2.60
2023-01-19T10:38:55.331Z,2.60
2023-01-19T10:41:29.759Z,2.60
2023-01-19T10:44:04.249Z,2.60
2023-01-19T10:46:43.883Z,2.50
2023-01-19T10:49:26.377Z,2.50
2023-01-19T10:51:55.890Z,2.60
2023-01-19T10:54:25.791Z,2.50
2023-01-19T10:56:59.112Z,2.60
2023-01-19T10:59:39.122Z,2.60
2023-01-19T11:02:22.314Z,2.60
2023-01-19T11:04:54.078Z,2.60
2023-01-19T11:07:24.841Z,2.60
2023-01-19T11:10:22.754Z,2.50
2023-01-19T11:13:04.262Z,2.50
2023-01-19T11:15:36.649Z,2.50
2023-01-19T11:18:09.706Z,2.60
2023-01-19T11:20:51.005Z,2.60
2023-01-19T11:23:28.182Z,2.60
2023-01-19T11:25:59.269Z,2.60
2023-01-19T11:28:33.527Z,2.60
2023-01-19T11:31:04.263Z,2.50
2023-01-19T11:33:39.153Z,2.50
2023-01-19T11:36:18.997Z,2.50
2023-01-19T11:38:51.927Z,2.40
2023-01-19T11:41:22.736Z,2.40
2023-01-19T11:43:55.421Z,2.40
2023-01-19T11:46:28.416Z,2.40
2023-01-19T11:49:03.650Z,2.40
2023-01-19T11:51:53.682Z,2.40
2023-01-19T11:54:28.005Z,2.40
2023-01-19T11:56:59.768Z,2.40
2023-01-19T11:59:28.894Z,2.40
2023-01-19T12:02:00.204Z,2.50
2023-01-19T12:04:32.204Z,2.50
2023-01-19T12:07:09.025Z,2.50
2023-01-19T12:09:43.272Z,2.50
2023-01-19T12:12:17.152Z,2.50
2023-01-19T12:14:54.058Z,2.50
2023-01-19T12:17:27.724Z,2.50
2023-01-19T12:20:02.201Z,2.50
2023-01-19T12:22:41.969Z,2.40
2023-01-19T12:25:21.172Z,2.40
2023-01-19T12:27:53.974Z,2.30
2023-01-19T12:30:25.165Z,2.30
2023-01-19T12:33:14.089Z,2.30
2023-01-19T12:36:04.630Z,2.30
2023-01-19T12:38:52.342Z,2.40
2023-01-19T12:41:27.518Z,2.40
2023-01-19T12:44:21.145Z,2.40
2023-01-19T12:46:52.592Z,2.40
2023-01-19T12:49:38.346Z,2.40
2023-01-19T12:52:33.947Z,2.50
2023-01-19T12:55:08.586Z,2.60
2023-01-19T12:57:40.331Z,2.60
2023-01-19T13:00:29.939Z,2.50
2023-01-19T13:02:59.533Z,2.60
2023-01-19T13:05:58.848Z,2.50
2023-01-19T13:08:41.845Z,2.50
2023-01-19T13:11:20.857Z,2.40
2023-01-19T13:14:35.590Z,2.40
2023-01-19T13:17:20.770Z,2.40
2023-01-19T13:19:53.522Z,2.40
2023-01-19T13:23:01.730Z,2.40
2023-01-19T13:25:37.140Z,2.40
2023-01-19T13:28:13.543Z,2.40
2023-01-19T13:30:58.650Z,2.40
2023-01-19T13:33:29.857Z,2.30
2023-01-19T13:35:59.981Z,2.30
2023-01-19T13:38:34.941Z,2.30
2023-01-19T13:41:05.538Z,2.30
2023-01-19T13:43:38.562Z,2.30
2023-01-19T13:46:10.676Z,2.30
2023-01-19T13:48:39.488Z,2.30
2023-01-19T13:51:19.140Z,2.30
2023-01-19T13:53:56.328Z,2.30
2023-01-19T13:56:28.569Z,2.30
2023-01-19T13:59:10.273Z,2.40
2023-01-19T14:01:41.646Z,2.30
2023-01-19T14:04:32.143Z,2.40
2023-01-19T14:07:04.286Z,2.40
2023-01-19T14:09:32.978Z,2.50
2023-01-19T14:12:13.982Z,2.60
2023-01-19T14:14:43.888Z,2.50
2023-01-19T14:17:26.965Z,2.60
2023-01-19T14:19:58.551Z,2.60
2023-01-19T14:22:43.861Z,2.50
2023-01-19T14:25:29.830Z,2.50
2023-01-19T14:28:38.602Z,2.60
2023-01-19T14:31:23.725Z,2.50
2023-01-19T14:33:54.298Z,2.50
2023-01-19T14:36:34.465Z,2.60
2023-01-19T14:39:03.856Z,2.50
2023-01-19T14:41:38.596Z,2.50
2023-01-19T14:44:12.104Z,2.50
2023-01-19T14:46:47.042Z,2.50
2023-01-19T14:49:21.947Z,2.50
2023-01-19T14:51:51.939Z,2.60
2023-01-19T14:54:28.757Z,2.50
2023-01-19T14:56:57.522Z,2.50
2023-01-19T14:59:30.070Z,2.50
2023-01-19T15:02:01.329Z,2.40
2023-01-19T15:04:30.088Z,2.50
2023-01-19T15:06:58.986Z,2.40
2023-01-19T15:09:27.645Z,2.40
2023-01-19T15:11:56.515Z,2.40
2023-01-19T15:14:27.975Z,2.40
2023-01-19T15:16:56.742Z,2.40
2023-01-19T15:19:25.211Z,2.40
2023-01-19T15:21:53.619Z,2.40
2023-01-19T15:24:22.172Z,2.40
2023-01-19T15:26:50.712Z,2.40
2023-01-19T15:29:28.521Z,2.30
2023-01-19T15:31:58.782Z,2.30
2023-01-19T15:34:27.225Z,2.30
2023-01-19T15:36:56.626Z,2.20
2023-01-19T15:39:26.183Z,2.20
2023-01-19T15:41:54.670Z,2.20
2023-01-19T15:44:23.068Z,2.20
2023-01-19T15:46:54.669Z,2.10
2023-01-19T15:49:26.055Z,2.10
2023-01-19T15:51:54.658Z,2.10
2023-01-19T15:54:23.368Z,2.00
2023-01-19T15:56:52.843Z,1.90
2023-01-19T15:59:21.222Z,1.80
2023-01-19T16:01:53.183Z,1.80
2023-01-19T16:04:21.692Z,1.80
2023-01-19T16:06:51.391Z,1.80
2023-01-19T16:09:21.054Z,1.70
2023-01-19T16:11:49.442Z,1.70
2023-01-19T16:14:17.907Z,1.50
2023-01-19T16:16:47.237Z,1.40
2023-01-19T16:19:21.204Z,1.40
2023-01-19T16:21:50.577Z,1.30
2023-01-19T16:24:19.725Z,1.30
2023-01-19T16:26:48.523Z,1.30
2023-01-19T16:29:18.942Z,1.30
2023-01-19T16:31:47.681Z,1.30
2023-01-19T16:34:16.716Z,1.30
2023-01-19T16:36:48.059Z,1.30
2023-01-19T16:39:17.867Z,1.30
2023-01-19T16:41:49.736Z,1.30
2023-01-19T16:44:18.909Z,1.30
2023-01-19T16:46:50.829Z,1.30
2023-01-19T16:49:22.011Z,1.30
2023-01-19T16:51:52.876Z,1.30
2023-01-19T16:54:26.083Z,1.30
2023-01-19T16:56:56.295Z,1.30
2023-01-19T16:59:27.018Z,1.30
2023-01-19T17:01:56.017Z,1.40
2023-01-19T17:04:25.022Z,1.40
2023-01-19T17:06:55.328Z,1.40
2023-01-19T17:09:24.930Z,1.40
2023-01-19T17:11:53.485Z,1.40
2023-01-19T17:14:22.833Z,1.40
2023-01-19T17:16:51.343Z,1.40
2023-01-19T17:19:22.186Z,1.40
2023-01-19T17:21:52.621Z,1.40
2023-01-19T17:24:24.125Z,1.40
2023-01-19T17:26:52.794Z,1.40
2023-01-19T17:29:21.756Z,1.40
2023-01-19T17:31:51.948Z,1.40
2023-01-19T17:34:20.490Z,1.40
2023-01-19T17:36:51.741Z,1.40
2023-01-19T17:39:21.558Z,1.40
2023-01-19T17:41:52.485Z,1.40
2023-01-19T17:44:21.044Z,1.40
2023-01-19T17:46:49.860Z,1.30
2023-01-19T17:49:18.410Z,1.30
2023-01-19T17:51:47.356Z,1.30
2023-01-19T17:54:15.719Z,1.30
2023-01-19T17:56:44.369Z,1.30
2023-01-19T17:59:14.924Z,1.40
2023-01-19T18:01:45.752Z,1.40
2023-01-19T18:04:16.821Z,1.40
2023-01-19T18:06:47.267Z,1.40
2023-01-19T18:09:18.475Z,1.40
2023-01-19T18:11:46.661Z,1.40
2023-01-19T18:14:16.638Z,1.30
2023-01-19T18:16:47.237Z,1.20
2023-01-19T18:19:15.796Z,1.20
2023-01-19T18:21:46.604Z,1.10
2023-01-19T18:24:15.577Z,1.10
2023-01-19T18:26:48.101Z,1.00
2023-01-19T18:29:19.387Z,1.00
2023-01-19T18:31:47.739Z,1.00
2023-01-19T18:34:16.344Z,0.90
2023-01-19T18:36:45.310Z,0.90
2023-01-19T18:39:14.372Z,0.80
2023-01-19T18:41:42.832Z,0.70
2023-01-19T18:44:12.386Z,0.60
2023-01-19T18:46:42.612Z,0.50
2023-01-19T18:49:18.368Z,0.40
2023-01-19T18:51:47.113Z,0.30
2023-01-19T18:54:17.905Z,0.20
2023-01-19T18:56:46.205Z,0.20
2023-01-19T18:59:14.677Z,0.10
2023-01-19T19:01:44.614Z,0.00
2023-01-19T19:04:13.343Z,-0.10
2023-01-19T19:06:42.060Z,-0.20
2023-01-19T19:09:13.476Z,-0.30
2023-01-19T19:11:43.326Z,-0.40
2023-01-19T19:14:12.088Z,-0.40
2023-01-19T19:16:40.987Z,-0.50
2023-01-19T19:19:15.585Z,-0.50
2023-01-19T19:21:44.884Z,-0.60
2023-01-19T19:24:13.485Z,-0.60
2023-01-19T19:26:42.956Z,-0.70
2023-01-19T19:29:14.094Z,-0.70
2023-01-19T19:31:43.014Z,-0.70
2023-01-19T19:34:13.720Z,-0.60
2023-01-19T19:36:42.281Z,-0.50
2023-01-19T19:39:11.122Z,-0.50
2023-01-19T19:41:39.492Z,-0.40
2023-01-19T19:44:07.954Z,-0.40
2023-01-19T19:46:37.599Z,-0.30
2023-01-19T19:49:06.134Z,-0.30
2023-01-19T19:51:36.937Z,-0.30
2023-01-19T19:54:05.153Z,-0.30
2023-01-19T19:56:34.710Z,-0.40
2023-01-19T19:59:03.609Z,-0.40
2023-01-19T20:01:34.025Z,-0.40
2023-01-19T20:04:07.777Z,-0.40
2023-01-19T20:06:42.035Z,-0.40
2023-01-19T20:09:12.960Z,-0.50
2023-01-19T20:11:41.899Z,-0.40
2023-01-19T20:14:12.333Z,-0.20
2023-01-19T20:16:41.290Z,-0.20
2023-01-19T20:19:10.202Z,-0.20
2023-01-19T20:21:42.938Z,-0.30
2023-01-19T20:24:15.309Z,-0.40
2023-01-19T20:26:47.608Z,-0.40
2023-01-19T20:29:18.040Z,-0.30
2023-01-19T20:31:50.037Z,-0.40
2023-01-19T20:34:20.577Z,-0.50
2023-01-19T20:36:53.580Z,-0.50
2023-01-19T20:39:23.870Z,-0.60
2023-01-19T20:41:55.510Z,-0.50
2023-01-19T20:44:25.696Z,-0.60
2023-01-19T20:46:55.258Z,-0.60
2023-01-19T20:49:24.329Z,-0.60
2023-01-19T20:51:54.586Z,-0.50
2023-01-19T20:54:27.398Z,-0.60
2023-01-19T20:56:56.550Z,-0.50
2023-01-19T20:59:25.841Z,-0.50
2023-01-19T21:01:58.195Z,-0.60
2023-01-19T21:04:27.124Z,-0.60
2023-01-19T21:06:57.014Z,-0.60
2023-01-19T21:09:25.899Z,-0.60
2023-01-19T21:11:57.350Z,-0.70
2023-01-19T21:14:26.880Z,-0.70
2023-01-19T21:17:00.846Z,-0.70
2023-01-19T21:19:29.555Z,-0.70
2023-01-19T21:21:59.545Z,-0.60
2023-01-19T21:24:29.775Z,-0.60
2023-01-19T21:26:59.391Z,-0.60
2023-01-19T21:29:28.012Z,-0.70
2023-01-19T21:31:56.575Z,-0.70
2023-01-19T21:34:25.264Z,-0.70
2023-01-19T21:36:53.629Z,-0.80
2023-01-19T21:39:24.056Z,-0.90
2023-01-19T21:41:52.644Z,-0.90
2023-01-19T21:44:21.477Z,-1.00
2023-01-19T21:46:49.838Z,-1.10
2023-01-19T21:49:20.176Z,-1.10
2023-01-19T21:51:50.490Z,-1.20
2023-01-19T21:54:19.121Z,-1.20
2023-01-19T21:56:51.472Z,-1.20
2023-01-19T21:59:20.490Z,-1.20
2023-01-19T22:01:49.091Z,-1.20
2023-01-19T22:04:20.272Z,-1.10
2023-01-19T22:06:49.012Z,-1.10
2023-01-19T22:09:17.877Z,-1.00
2023-01-19T22:11:46.873Z,-1.10
2023-01-19T22:14:18.471Z,-1.10
2023-01-19T22:16:47.261Z,-1.10
2023-01-19T22:19:15.956Z,-1.10
2023-01-19T22:21:44.681Z,-1.00
2023-01-19T22:24:13.677Z,-1.00
2023-01-19T22:26:43.746Z,-1.00
2023-01-19T22:29:13.524Z,-1.00
2023-01-19T22:31:44.103Z,-1.00
2023-01-19T22:34:13.862Z,-1.00
2023-01-19T22:36:42.404Z,-1.10
2023-01-19T22:39:13.113Z,-1.10
2023-01-19T22:41:44.596Z,-1.10
2023-01-19T22:44:15.635Z,-1.10
2023-01-19T22:46:45.958Z,-1.00
2023-01-19T22:49:16.294Z,-0.90
2023-01-19T22:51:47.079Z,-0.90
2023-01-19T22:54:15.866Z,-1.00
2023-01-19T22:56:45.758Z,-1.00
2023-01-19T22:59:14.424Z,-1.00
2023-01-19T23:01:47.333Z,-1.00
2023-01-19T23:04:17.120Z,-1.00
2023-01-19T23:06:49.283Z,-1.00
2023-01-19T23:09:18.672Z,-1.00
2023-01-19T23:11:50.703Z,-1.00
2023-01-19T23:14:21.155Z,-1.00
2023-01-19T23:16:51.346Z,-1.00
2023-01-19T23:19:20.192Z,-1.00
2023-01-19T23:21:52.211Z,-1.00
2023-01-19T23:24:20.624Z,-0.90
2023-01-19T23:26:51.113Z,-0.80
2023-01-19T23:29:19.772Z,-0.80
2023-01-19T23:31:50.898Z,-0.80
2023-01-19T23:34:19.549Z,-0.80
2023-01-19T23:36:48.447Z,-0.80
2023-01-19T23:39:19.287Z,-0.80
2023-01-19T23:41:48.891Z,-0.80
2023-01-19T23:44:20.755Z,-0.90
2023-01-19T23:46:52.118Z,-0.90
2023-01-19T23:49:22.207Z,-0.90
2023-01-19T23:51:54.582Z,-0.90
2023-01-19T23:54:23.388Z,-1.00
2023-01-19T23:56:51.898Z,-1.10
2023-01-19T23:59:20.343Z,-1.10
